Terminal Aerodrome Forecast
Issued by NWS Atlanta, GA

Home | Current Version | Previous Version | Text Only | Print | Product List | Glossary On
Versions: 1 2 3 4 5 6 7 8 9 10 11 12 13 14 15 16 17
000
FTUS42 KFFC 292328
TAFCSG
TAF
KCSG 292328Z 3000/3024 12005KT P6SM SKC
     FM300700 10003KT P6SM SKC
     FM301000 11003KT P6SM FEW012
     FM301300 11003KT P6SM SCT025
     FM301600 13005KT P6SM BKN035=

USA.gov is the U.S. government's official web portal to all federal, state and local government web resources and services.